createdAt,value
2023-03-02T00:09:17.603Z,5.70
2023-03-02T00:19:21.751Z,5.50
2023-03-02T00:29:26.998Z,5.30
2023-03-02T00:39:30.937Z,5.50
2023-03-02T00:49:36.778Z,5.60
2023-03-02T00:59:40.686Z,5.50
2023-03-02T01:09:46.696Z,5.40
2023-03-02T01:19:50.470Z,5.40
2023-03-02T01:29:55.523Z,5.40
2023-03-02T01:40:00.234Z,5.20
2023-03-02T01:50:15.566Z,5.20
2023-03-02T02:00:23.342Z,5.40
2023-03-02T02:10:29.751Z,5.50
2023-03-02T02:20:39.127Z,5.50
2023-03-02T02:30:45.011Z,5.70
2023-03-02T02:40:53.792Z,6.10
2023-03-02T02:51:01.666Z,6.30
2023-03-02T03:01:06.178Z,6.40
2023-03-02T03:11:13.165Z,6.30
2023-03-02T03:21:18.510Z,6.30
2023-03-02T03:31:23.599Z,6.40
2023-03-02T03:41:28.163Z,6.60
2023-03-02T03:51:35.795Z,6.80
2023-03-02T04:01:42.652Z,6.80
2023-03-02T04:11:49.854Z,6.70
2023-03-02T04:21:55.601Z,6.60
2023-03-02T04:32:01.133Z,6.50
2023-03-02T04:42:05.602Z,6.40
2023-03-02T04:52:10.793Z,6.50
2023-03-02T05:02:14.678Z,6.30
2023-03-02T05:12:21.988Z,6.30
2023-03-02T05:22:25.750Z,6.20
2023-03-02T05:32:30.880Z,6.10
2023-03-02T05:42:36.204Z,6.10
2023-03-02T05:52:41.330Z,6.00
2023-03-02T06:02:45.171Z,5.90
2023-03-02T06:12:50.393Z,5.90
2023-03-02T06:22:54.225Z,5.90
2023-03-02T06:33:00.168Z,5.80
2023-03-02T06:43:04.514Z,5.80
2023-03-02T06:53:10.097Z,5.80
2023-03-02T07:03:14.071Z,5.90
2023-03-02T07:13:19.199Z,5.90
2023-03-02T07:23:23.908Z,5.80
2023-03-02T07:33:31.790Z,5.90
2023-03-02T07:43:36.802Z,5.80
2023-03-02T07:53:42.463Z,6.00
2023-03-02T08:03:46.275Z,6.20
2023-03-02T08:13:51.375Z,6.40
2023-03-02T08:23:55.180Z,6.60
2023-03-02T08:34:00.772Z,6.90
2023-03-02T08:44:04.688Z,7.20
2023-03-02T08:54:10.013Z,7.40
2023-03-02T09:04:13.921Z,7.40
2023-03-02T09:14:19.457Z,7.20
2023-03-02T09:24:23.382Z,7.80
2023-03-02T09:34:28.591Z,8.50
2023-03-02T09:44:47.171Z,9.20
2023-03-02T09:54:52.802Z,9.70
2023-03-02T10:05:00.169Z,10.00
2023-03-02T10:15:12.828Z,9.80
2023-03-02T10:25:31.522Z,9.80
2023-03-02T10:35:39.417Z,10.30
2023-03-02T10:45:43.345Z,10.60
2023-03-02T10:55:50.792Z,11.10
2023-03-02T11:05:54.502Z,11.20
2023-03-02T11:16:00.975Z,11.10
2023-03-02T11:26:10.638Z,11.80
2023-03-02T11:36:20.192Z,11.50
2023-03-02T11:46:27.064Z,11.60
2023-03-02T11:56:35.315Z,11.20
2023-03-02T12:06:42.823Z,10.90
2023-03-02T12:16:48.003Z,11.10
2023-03-02T12:27:03.180Z,11.60
2023-03-02T12:37:17.864Z,12.40
2023-03-02T12:47:27.714Z,13.30
2023-03-02T12:57:33.754Z,14.30
2023-03-02T13:07:41.641Z,15.00
2023-03-02T13:17:54.434Z,16.50
2023-03-02T13:28:00.948Z,16.50
2023-03-02T13:38:08.049Z,17.10
2023-03-02T13:48:16.619Z,17.70
2023-03-02T13:58:24.584Z,17.80
2023-03-02T14:08:28.902Z,14.90
2023-03-02T14:18:39.622Z,14.30
2023-03-02T14:28:44.012Z,14.30
2023-03-02T14:38:49.115Z,14.40
2023-03-02T14:48:53.122Z,14.00
2023-03-02T14:59:01.440Z,14.80
2023-03-02T15:09:05.776Z,14.90
2023-03-02T15:19:11.428Z,14.50
2023-03-02T15:29:15.309Z,14.10
2023-03-02T15:39:20.329Z,13.90
2023-03-02T15:49:25.160Z,13.80
2023-03-02T15:59:32.196Z,13.50
2023-03-02T16:09:36.076Z,14.20
2023-03-02T16:19:41.641Z,13.80
2023-03-02T16:29:45.552Z,13.40
2023-03-02T16:39:50.732Z,13.00
2023-03-02T16:49:54.350Z,12.60
2023-03-02T17:00:00.376Z,12.40
2023-03-02T17:10:04.248Z,12.30
2023-03-02T17:20:13.074Z,11.70
2023-03-02T17:30:17.269Z,11.30
2023-03-02T17:40:22.623Z,11.80
2023-03-02T17:50:27.695Z,11.10
2023-03-02T18:00:33.835Z,10.70
2023-03-02T18:10:37.628Z,10.50
2023-03-02T18:20:42.941Z,10.40
2023-03-02T18:30:47.406Z,10.20
2023-03-02T18:40:54.160Z,10.00
2023-03-02T18:50:58.457Z,9.40
2023-03-02T19:01:04.187Z,9.20
2023-03-02T19:11:08.143Z,9.00
2023-03-02T19:21:13.232Z,9.20
2023-03-02T19:31:18.418Z,8.90
2023-03-02T19:41:23.769Z,8.40
2023-03-02T19:51:27.664Z,8.50
2023-03-02T20:01:32.943Z,8.60
2023-03-02T20:11:38.473Z,8.20
2023-03-02T20:21:43.526Z,8.00
2023-03-02T20:31:47.750Z,8.10
2023-03-02T20:41:53.169Z,8.10
2023-03-02T20:51:59.226Z,7.90
2023-03-02T21:02:06.523Z,7.90
2023-03-02T21:12:11.953Z,7.90
2023-03-02T21:22:17.252Z,8.00
2023-03-02T21:32:22.091Z,7.80
2023-03-02T21:42:27.834Z,7.70
2023-03-02T21:52:31.811Z,7.70
2023-03-02T22:02:37.245Z,7.60
2023-03-02T22:12:42.279Z,7.60
2023-03-02T22:22:47.487Z,7.60
2023-03-02T22:32:51.650Z,7.50
2023-03-02T22:43:11.430Z,7.50
2023-03-02T22:53:30.448Z,7.40
2023-03-02T23:03:44.569Z,7.40
2023-03-02T23:13:48.852Z,7.30
2023-03-02T23:23:54.783Z,7.30
2023-03-02T23:33:58.633Z,7.20
2023-03-02T23:44:04.016Z,7.10
2023-03-02T23:54:08.167Z,7.10
